Stunt Ranch Reserve, Santa Monica Mtns, California Weather observations

Data are for 10 minute period ending at time listed.
 Day   Time   Solar   Ave.   Ave.  Ave.  Vector  Max.   Baro.   Total    
  of    of     Rad.   Air    Rel.  Wind   Wind   Wind  Press.  Precip.   
Year   Day            Temp.  Hum.  Speed  Dir.   Gust                    
2024   (PST)  Kw/m2    F      %     mph   deg.    mph    mb.     in.     
-------------------------------------------------------------------------
 150   11:10   0.88   71.1    58    3.9   279     8.3   970.9    0.00 
 150   11:20   0.88   72.1    57    4.1   282     8.2   970.8    0.00 
 150   11:30   0.89   72.6    56    4.0   282     7.9   970.7    0.00 
 150   11:40   0.89   71.2    59    3.8   299     8.2   970.6    0.00 
 150   11:50   0.89   72.2    57    4.1   277     9.3   970.6    0.00 
 150   12:00   0.89   73.5    56    3.4   288     7.7   970.6    0.00 
 150   12:10   0.89   73.8    55    3.6   282     7.9   970.5    0.00 
 150   12:20   0.86   73.8    55    3.7   283     7.2   970.3    0.00 
 150   12:30   0.89   73.1    56    3.3   279     8.0   970.2    0.00 
 150   12:40   0.88   72.9    56    3.5   282     7.7   970.2    0.00 
 150   12:50   0.88   74.7    53    3.7   275     8.5   970.3    0.00 
 150   13:00   0.87   76.1    52    3.8   279     8.5   970.3    0.00 
 150   13:10   0.86   76.3    51    3.7   285     8.9   970.3    0.00 
 150   13:20   0.85   75.3    52    4.8   273     9.3   970.2    0.00 
 150   13:30   0.84   73.9    54    3.8   279     7.6   970.2    0.00 
 150   13:40   0.83   74.0    54    3.7   281     8.3   970.1    0.00 
 150   13:50   0.81   73.3    55    3.6   286     8.5   970.0    0.00 
 150   14:00   0.79   73.0    56    2.9   290     7.7   970.1    0.00 
 150   14:10   0.78   73.7    54    3.3   286     7.3   970.0    0.00 
 150   14:20   0.76   73.5    55    3.8   279     8.0   969.9    0.00 
 150   14:30   0.74   73.4    55    4.5   284     7.7   969.8    0.00 
 150   14:40   0.72   72.9    55    3.7   280     7.5   969.8    0.00 
 150   14:50   0.69   73.0    55    3.8   280     7.2   969.8    0.00 
 150   15:00   0.67   72.7    56    4.1   280     8.0   969.7    0.00 
 150   15:10   0.65   72.8    56    4.1   274     7.8   969.6    0.00 
 150   15:20   0.62   72.5    55    4.4   279     8.8   969.6    0.00 
 150   15:30   0.59   72.0    57    4.3   275     8.2   969.5    0.00 
 150   15:40   0.57   71.3    58    4.1   277     8.1   969.5    0.00 
 150   15:50   0.54   70.8    58    3.5   278     7.6   969.4    0.00 
 150   16:00   0.51   70.6    59    3.8   278     6.8   969.3    0.00 
 150   16:10   0.48   70.9    59    3.2   276     7.5   969.3    0.00 
 150   16:20   0.45   71.5    58    3.8   274     7.7   969.2    0.00 
 150   16:30   0.42   70.6    59    3.3   285     6.7   969.2    0.00 
 150   16:40   0.39   70.5    59    3.2   282     6.1   969.1    0.00 
 150   16:50   0.35   70.8    58    2.9   281     5.5   969.1    0.00 
 150   17:00   0.32   69.3    61    2.8   284     5.7   969.1    0.00 
 150   17:10   0.29   68.0    63    2.7   310     5.9   969.0    0.00 
 150   17:20   0.26   68.3    62    2.6   285     4.7   969.1    0.00 
 150   17:30   0.22   67.2    64    1.5   259     3.6   969.0    0.00 
 150   17:40   0.19   66.7    65    2.0   312     4.2   969.0    0.00 
 150   17:50   0.13   66.5    65    2.1   295     4.7   969.0    0.00 
 150   18:00   0.09   66.1    65    2.8   300     4.7   969.1    0.00 
 150   18:10   0.07   65.2    66    2.6   283     5.0   969.2    0.00 
 150   18:20   0.03   64.5    67    2.3   290     4.0   969.2    0.00 
 150   18:30   0.02   63.8    68    1.9   265     3.2   969.2    0.00 
 150   18:40   0.02   62.9    70    1.4   227     4.1   969.1    0.00 
 150   18:50   0.01   62.1    68    2.3    90     4.1   969.1    0.00 
 150   19:00   0.01   61.1    71    1.0   121     3.2   969.1    0.00 
 150   19:10   0.00   60.3    66    1.1   103     2.8   969.2    0.00 
 150   19:20   0.00   60.0    69    1.4   274     2.5   969.2    0.00 
 150   19:30   0.00   59.5    72    2.0   255     4.0   969.1    0.00 
 150   19:40   0.00   58.9    74    0.8   189     1.6   969.1    0.00 
 150   19:50   0.00   58.5    74    1.0   215     1.8   969.2    0.00 
 150   20:00   0.00   58.5    75    1.3   176     2.4   969.3    0.00 
 150   20:10   0.00   58.4    76    1.8   284     3.1   969.3    0.00 
 150   20:20   0.00   58.2    77    1.4   234     3.1   969.3    0.00 
 150   20:30   0.00   58.3    76    1.7   246     2.9   969.4    0.00 
 150   20:40   0.00   57.8    77    1.6   232     4.2   969.4    0.00 
 150   20:50   0.00   57.6    78    1.7   241     3.3   969.5    0.00 
 150   21:00   0.00   57.5    78    1.7   236     3.7   969.5    0.00 
 150   21:10   0.00   57.1    80    1.5   230     3.0   969.6    0.00 
 150   21:20   0.00   57.0    80    1.3   229     3.1   969.7    0.00 
 150   21:30   0.00   56.4    82    1.9   252     3.6   969.7    0.00 
 150   21:40   0.00   56.2    82    1.8   256     3.1   969.8    0.00 
 150   21:50   0.00   55.8    83    1.3   268     2.3   969.8    0.00 
 150   22:00   0.00   55.5    84    0.7   267     2.0   969.8    0.00 
 150   22:10   0.00   55.3    85    0.4   257     1.5   969.8    0.00 
 150   22:20   0.00   55.4    85    1.5   250     3.6   969.7    0.00 
 150   22:30   0.00   55.2    85    0.7   104     1.5   969.7    0.00 
 150   22:40   0.00   55.1    85    1.3   205     2.6   969.6    0.00 
 150   22:50   0.00   55.3    84    1.7   240     3.1   969.6    0.00 
 150   23:00   0.00   54.8    85    1.9   255     3.0   969.5    0.00 
 150   23:10   0.00   54.0    86    2.3   253     4.4   969.5    0.00 
 150   23:20   0.00   53.7    88    1.7   257     3.5   969.5    0.00 
 150   23:30   0.00   53.7    88    0.3   237     1.5   969.5    0.00 
 150   23:40   0.00   53.7    88    0.4   212     1.9   969.5    0.00 
 150   23:50   0.00   53.7    88    0.1   204     0.9   969.4    0.00 
 151    0:00   0.00   53.4    88    0.7   177     1.5   969.4    0.00 
 151    0:10   0.00   53.3    88    0.9   163     2.2   969.3    0.00 
 151    0:20   0.00   53.2    89    0.3   202     1.2   969.3    0.00 
 151    0:30   0.00   53.5    88    0.9   198     2.0   969.1    0.00 
 151    0:40   0.00   53.4    88    2.5   269     4.5   969.1    0.00 
 151    0:50   0.00   52.5    89    1.0   237     3.4   969.1    0.00 
 151    1:00   0.00   52.3    90    0.7   114     2.3   969.0    0.00 
 151    1:10   0.00   52.7    90    0.5   132     1.4   968.9    0.00 
 151    1:20   0.00   52.8    91    0.0   168     0.4   968.8    0.00 
 151    1:30   0.00   53.1    90    0.4   136     1.2   968.7    0.00 
 151    1:40   0.00   53.2    90    0.1   129     0.6   968.6    0.00 
 151    1:50   0.00   53.2    91    0.9   250     1.8   968.6    0.00 
 151    2:00   0.00   52.7    90    0.2   258     1.3   968.5    0.00 
 151    2:10   0.00   52.5    91    0.9   257     1.8   968.4    0.00 
 151    2:20   0.00   52.3    91    0.7   250     1.9   968.4    0.00 
 151    2:30   0.00   52.2    92    0.3   119     1.2   968.4    0.00 
 151    2:40   0.00   52.1    91    0.2   167     1.0   968.4    0.00 
 151    2:50   0.00   52.1    92    0.0     0     0.0   968.3    0.00 
 151    3:00   0.00   52.1    92    0.3   133     1.8   968.3    0.00 
 151    3:10   0.00   51.9    92    1.9   133     3.0   968.3    0.00 
 151    3:20   0.00   52.2    92    0.4    83     1.2   968.3    0.00 
 151    3:30   0.00   52.1    92    1.3   142     2.4   968.3    0.00 
 151    3:40   0.00   52.2    92    0.1   328     1.0   968.2    0.00 
 151    3:50   0.00   51.9    92    0.0     0     0.0   968.2    0.00 
 151    4:00   0.00   52.0    92    0.2   289     1.3   968.2    0.00 
 151    4:10   0.00   51.8    92    1.1   139     2.3   968.2    0.00 
 151    4:20   0.00   52.1    93    0.3   198     1.5   968.2    0.00 
 151    4:30   0.00   51.9    93    0.7   262     2.0   968.3    0.00 
 151    4:40   0.00   51.7    93    0.3   291     1.0   968.3    0.00 
 151    4:50   0.00   51.8    93    0.5   176     1.2   968.4    0.00 
 151    5:00   0.01   52.1    93    0.2   194     0.7   968.3    0.00 
 151    5:10   0.01   52.0    93    0.0     0     0.0   968.4    0.00 
 151    5:20   0.02   52.2    93    0.0   272     0.1   968.5    0.00 
 151    5:30   0.02   52.2    93    0.3   187     1.6   968.6    0.00 
 151    5:40   0.04   52.7    93    0.0     0     0.0   968.6    0.00 
 151    5:50   0.12   55.0    93    0.0     0     0.0   968.7    0.00 
 151    6:00   0.14   57.6    85    0.6   284     2.6   968.8    0.00 
 151    6:10   0.17   58.0    79    2.2   269     3.9   968.9    0.00 
 151    6:20   0.20   58.1    79    0.3    22     1.5   968.9    0.00 
 151    6:30   0.23   57.8    79    0.5   345     1.5   968.9    0.00 
 151    6:40   0.26   58.9    78    0.6    10     1.8   968.9    0.00 
 151    6:50   0.29   59.8    76    0.6    29     3.0   968.9    0.00 
 151    7:00   0.33   60.2    75    0.8   303     1.8   969.1    0.00 
 151    7:10   0.36   61.4    72    0.9   290     2.0   969.1    0.00 
 151    7:20   0.39   61.6    72    1.6   300     3.4   969.2    0.00 
 151    7:30   0.42   62.8    70    2.1   283     3.8   969.2    0.00 
 151    7:40   0.45   63.2    69    2.3   286     4.5   969.3    0.00 
 151    7:50   0.48   63.8    69    2.5   283     4.7   969.2    0.00 
 151    8:00   0.51   64.7    67    2.8   286     4.7   969.2    0.00 
 151    8:10   0.54   66.0    66    3.2   277     5.1   969.3    0.00 
 151    8:20   0.57   66.8    65    2.7   287     4.7   969.3    0.00 
 151    8:30   0.59   68.1    63    3.0   279     5.3   969.3    0.00 
 151    8:40   0.62   68.9    62    3.2   276     7.3   969.2    0.00 
 151    8:50   0.65   69.2    62    4.4   275     7.9   969.2    0.00 
 151    9:00   0.67   71.0    59    3.8   276     7.2   969.3    0.00 
 151    9:10   0.69   71.9    57    4.1   276     8.0   969.3    0.00 
 151    9:20   0.71   71.2    58    4.0   277     6.9   969.3    0.00 
 151    9:30   0.73   70.8    59    3.8   278     7.6   969.4    0.00 
 151    9:40   0.75   70.5    60    3.4   288     6.5   969.3    0.00 
 151    9:50   0.77   71.9    58    3.9   285     7.0   969.3    0.00 
 151   10:00   0.79   71.6    59    3.5   304     6.5   969.3    0.00 
 151   10:10   0.80   71.3    59    3.3   296     6.4   969.3    0.00 
 151   10:20   0.81   71.8    58    2.8   268     6.5   969.2    0.00 
 151   10:30   0.83   72.4    58    3.3   266     7.4   969.2    0.00 
 151   10:40   0.84   73.8    56    4.4   276     8.8   969.1    0.00 
 151   10:50   0.85   75.5    53    3.9   279     8.5   969.0    0.00 
 151   11:00   0.86   76.9    51    4.2   279     8.9   968.9    0.00 

Return to Stunt Ranch Reserve graphs page.


Western Regional Climate Center,wrcc@dri.edu